Flight Track Log - Related Links

Times and Time Zones

All times are in EDT time to prevent confusion due to time zone crossing. See the EJA951 flight status page for this flight to view local times or setup timezone preferences in your user account.

Time Position Orientation Groundspeed Altitude Reporting Facility
EDT Latitude Longitude Course Direction KTS MPH feet Rate Location/Type
Fri 02:11:49 PM 35.0417 -106.6056 North 161 185 6,200  Level Albuquerque Center
Fri 02:13:04 PM 35.1125 -106.5978 North 299 344 9,200 2,847 Climbing Albuquerque Center
Fri 02:14:06 PM 35.2178 -106.6197 350° North 326 375 12,700 3,194 Climbing Albuquerque Center
Fri 02:15:08 PM 35.2919 -106.7039 317° Northwest 370 426 15,800 2,634 Climbing Albuquerque Center
Fri 02:16:09 PM 35.3700 -106.7956 316° Northwest 388 447 18,100 2,049 Climbing Albuquerque Center
Fri 02:17:11 PM 35.4639 -106.8717 327° Northwest 412 474 20,000 1,742 Climbing Albuquerque Center
Fri 02:18:13 PM 35.5692 -106.9283 336° Northwest 413 475 21,700 1,694 Climbing Albuquerque Center
Fri 02:19:15 PM 35.6917 -106.9911 337° Northwest 420 483 23,500 1,500 Climbing Albuquerque Center
Fri 02:20:17 PM 35.8194 -107.0558 338° Northwest 437 503 24,800 1,258 Climbing Albuquerque Center
Fri 02:21:19 PM 35.9292 -107.1125 337° Northwest 445 512 26,100 1,161 Climbing Albuquerque Center
Fri 02:22:21 PM 36.0475 -107.1728 338° Northwest 455 524 27,200 1,065 Climbing Albuquerque Center
Fri 02:23:23 PM 36.1769 -107.2403 337° Northwest 465 535 28,300 1,122 Climbing Albuquerque Center
Fri 02:24:24 PM 36.3119 -107.3106 337° Northwest 471 542 29,500 1,073 Climbing Albuquerque Center
Fri 02:25:26 PM 36.4300 -107.3708 338° Northwest 476 548 30,500 1,065 Climbing Albuquerque Center
Fri 02:26:28 PM 36.5483 -107.4325 337° Northwest 480 552 31,700 1,597 Climbing Albuquerque Center
Fri 02:27:30 PM 36.6847 -107.5053 337° Northwest 478 550 33,800 2,078 Climbing Albuquerque Center
Fri 02:29:01 PM 36.8489 -107.5906 337° Northwest 451 519 37,000 1,843 Climbing Denver Center
Fri 02:30:03 PM 36.9772 -107.6564 338° Northwest 449 517 38,500 1,248 Climbing Denver Center
Fri 02:31:06 PM 37.0917 -107.7183 337° Northwest 464 534 39,600 720 Climbing Denver Center
Fri 02:32:08 PM 37.2297 -107.7911 337° Northwest 483 556 40,000 194 Climbing Denver Center
Fri 02:33:10 PM 37.3539 -107.8592 336° Northwest 505 581 40,000  Level Denver Center
Fri 02:34:12 PM 37.5036 -107.9289 340° North 514 592 40,000  Level Denver Center
Fri 02:35:14 PM 37.6319 -107.9619 348° North 496 571 40,000  Level Denver Center
Fri 02:36:16 PM 37.7775 -108.0056 347° North 483 556 40,000  Level Denver Center
Fri 02:37:18 PM 37.9039 -108.0411 347° North 486 559 40,000  Level Denver Center
Fri 02:38:20 PM 38.0517 -108.0831 347° North 489 563 40,000  Level Denver Center
Fri 02:39:22 PM 38.1800 -108.1606 335° Northwest 492 566 40,000  Level Denver Center
Fri 02:40:24 PM 38.2933 -108.2408 331° Northwest 488 562 40,000  Level Denver Center
Fri 02:41:26 PM 38.4258 -108.3358 331° Northwest 489 563 40,000  Level Denver Center
Fri 02:42:27 PM 38.5378 -108.4164 331° Northwest 482 555 40,000  Level Denver Center
Fri 02:43:29 PM 38.6506 -108.4967 331° Northwest 482 555 40,000  Level Denver Center
Fri 02:44:31 PM 38.7806 -108.5919 330° Northwest 481 554 40,000  Level Denver Center
Fri 02:45:33 PM 38.8919 -108.6728 331° Northwest 480 552 40,000  Level Denver Center
Fri 02:46:35 PM 39.0228 -108.7669 331° Northwest 480 552 40,000  Level Denver Center
Fri 02:47:37 PM 39.1425 -108.8239 340° North 480 552 40,000  Level Denver Center
Fri 02:48:39 PM 39.2872 -108.8756 345° North 480 552 40,000  Level Denver Center
Fri 02:49:41 PM 39.4119 -108.9200 345° North 482 555 40,000  Level Denver Center
Fri 02:50:55 PM 39.5367 -108.9650 344° North 479 551 40,000  Level Denver Center
Fri 02:51:57 PM 39.7056 -109.0272 344° North 485 558 40,000  Level Denver Center
Fri 02:52:59 PM 39.8297 -109.0692 345° North 478 550 40,000  Level Denver Center
Fri 02:54:00 PM 39.9733 -109.1219 344° North 478 550 40,000  Level Denver Center
Fri 02:55:02 PM 40.0961 -109.1661 345° North 477 549 40,000  Level Denver Center
Fri 02:56:04 PM 40.2383 -109.2189 344° North 476 548 40,000  Level Denver Center
Fri 02:57:06 PM 40.3603 -109.2631 345° North 475 547 40,000  Level Denver Center
Fri 02:58:08 PM 40.5033 -109.3175 344° North 479 551 40,000  Level Denver Center
Fri 02:59:10 PM 40.6258 -109.3622 345° North 479 551 40,000  Level Denver Center
Fri 03:00:12 PM 40.7506 -109.4089 344° North 479 551 40,000  Level Denver Center
Fri 03:01:26 PM 40.8944 -109.4619 344° North 480 552 40,000  Level Denver Center
Fri 03:02:28 PM 41.0383 -109.5172 344° North 481 554 40,000  Level Denver Center
Fri 03:03:37 PM 41.2028 -109.5792 344° North 482 555 40,000  Level Salt Lake Center
Fri 03:04:39 PM 41.3269 -109.6272 344° North 482 555 40,000  Level Salt Lake Center
Fri 03:05:41 PM 41.4522 -109.6728 345° North 483 556 40,000  Level Salt Lake Center
Fri 03:06:43 PM 41.5972 -109.7294 344° North 483 556 40,000  Level Salt Lake Center
Fri 03:07:45 PM 41.7217 -109.7772 344° North 483 556 40,000  Level Salt Lake Center
Fri 03:08:47 PM 41.8661 -109.8319 344° North 482 555 40,000  Level Salt Lake Center
Fri 03:09:49 PM 41.9892 -109.8806 344° North 481 554 40,000  Level Salt Lake Center
Fri 03:10:51 PM 42.1319 -109.9364 344° North 479 551 40,000  Level Salt Lake Center
Fri 03:11:53 PM 42.2531 -109.9839 344° North 475 547 40,000  Level Salt Lake Center
Fri 03:12:55 PM 42.3958 -110.0411 344° North 478 550 40,000  Level Salt Lake Center
Fri 03:13:57 PM 42.5172 -110.0878 344° North 473 544 40,000  Level Salt Lake Center
Fri 03:14:59 PM 42.6606 -110.1389 345° North 476 548 40,000  Level Salt Lake Center
Fri 03:16:01 PM 42.7931 -110.1797 347° North 474 545 40,000  Level Salt Lake Center
Fri 03:17:03 PM 42.9164 -110.2181 347° North 475 547 40,000  Level Salt Lake Center
Fri 03:18:05 PM 43.0592 -110.2628 347° North 472 543 40,000  Level Salt Lake Center
Fri 03:19:07 PM 43.1819 -110.3014 347° North 472 543 40,000  Level Salt Lake Center
Fri 03:20:09 PM 43.3161 -110.3394 348° North 473 544 40,000  Level Salt Lake Center
Fri 03:21:11 PM 43.4383 -110.3781 347° North 473 544 40,000  Level Salt Lake Center
Fri 03:22:14 PM 43.5689 -110.4200 347° North 470 541 40,000  Level Salt Lake Center
Fri 03:23:16 PM 43.7125 -110.4642 347° North 473 544 40,000  Level Salt Lake Center
Fri 03:24:18 PM 43.8364 -110.5047 347° North 476 548 40,000 -919 Level Salt Lake Center
Fri 03:25:20 PM 43.9797 -110.5531 346° North 476 548 38,100 -2,177 Descending Salt Lake Center
Fri 03:26:22 PM 44.1014 -110.5928 347° North 471 542 35,500 -2,758 Descending Salt Lake Center
Fri 03:27:24 PM 44.2450 -110.6392 347° North 475 547 32,400 -2,806 Descending Salt Lake Center
Fri 03:28:26 PM 44.3719 -110.6772 348° North 487 560 29,700 -3,000 Descending Salt Lake Center
Fri 03:29:28 PM 44.5192 -110.7292 346° North 489 563 26,200 -3,339 Descending Salt Lake Center
Fri 03:30:30 PM 44.6458 -110.7719 346° North 491 565 22,800 -3,581 Descending Salt Lake Center
Fri 03:31:32 PM 44.7828 -110.8181 347° North 459 528 18,800 -2,806 Descending Salt Lake Center
Fri 03:32:34 PM 44.8950 -110.8539 347° North 440 506 17,000 -871 Descending Salt Lake Center
Fri 03:33:36 PM 45.0233 -110.8975 346° North 430 495 17,000  Level Salt Lake Center
Fri 03:34:38 PM 45.1447 -110.9361 347° North 430 495 17,000 -1,258 Level Salt Lake Center
Fri 03:35:40 PM 45.2594 -110.9747 347° North 427 491 14,400 -1,935 Descending Salt Lake Center
Fri 03:36:42 PM 45.3622 -111.0103 346° North 391 450 13,000 -677 Descending Salt Lake Center
Fri 03:37:44 PM 45.4578 -111.0314 351° North 354 407 13,000 -581 Level Salt Lake Center
Fri 03:38:46 PM 45.5378 -111.0453 353° North 301 346 11,800 -2,565 Descending Salt Lake Center
Fri 03:39:48 PM 45.6250 -111.0614 353° North 277 319 7,700 -2,855 Descending Salt Lake Center
Fri 03:40:50 PM 45.6894 -111.0742 352° North 256 295 5,900 -1,113 Descending Salt Lake Center
Fri 03:41:52 PM 45.7381 -111.0975 341° North 217 250 5,400 -629 Descending Salt Lake Center
Fri 03:42:54 PM 45.7678 -111.1394 315° West 172 198 4,600 -774 Descending Salt Lake Center

Login

Don't have an account? Register now (free) for customized features, flight alerts, and more!